Time;durP1;ratioP1;P1;durP2;ratioP2;P2;SDS_P1;SDS_P2;PMS_P1;PMS_P2;Temp;Humidity;BMP_temperature;BMP_pressure;BME280_temperature;BME280_humidity;BME280_pressure;Samples;Min_cycle;Max_cycle;Signal;HPM_P1;HPM_P2
2023/04/17 00:01:39;;;;;;;88.43;48.23;;;6.70;79.90;;;;;;5053417;28;20101;-76
2023/04/17 00:04:09;;;;;;;108.40;48.20;;;6.60;79.90;;;;;;5069678;28;20052;-75
2023/04/17 00:06:42;;;;;;;106.30;49.53;;;6.60;79.90;;;;;;5038743;28;20051;-76
2023/04/17 00:09:08;;;;;;;110.90;50.30;;;6.60;79.90;;;;;;5052092;28;20407;-76
2023/04/17 00:11:34;;;;;;;113.57;50.63;;;6.60;80.00;;;;;;5052909;28;20048;-77
2023/04/17 00:13:59;;;;;;;102.03;49.90;;;6.60;80.00;;;;;;5069886;28;20052;-76
2023/04/17 00:16:26;;;;;;;94.73;45.97;;;6.60;79.90;;;;;;5023518;28;20141;-75
2023/04/17 00:18:52;;;;;;;86.20;45.03;;;6.60;80.00;;;;;;5050142;28;20052;-76
2023/04/17 00:21:18;;;;;;;84.40;43.50;;;6.60;80.00;;;;;;5050355;28;20045;-76
2023/04/17 00:23:44;;;;;;;88.80;44.53;;;6.60;80.00;;;;;;5047617;28;20045;-76
2023/04/17 00:26:11;;;;;;;82.23;41.43;;;6.60;80.00;;;;;;5042098;28;20052;-75
2023/04/17 00:28:37;;;;;;;89.97;45.03;;;6.60;79.90;;;;;;5043711;28;20098;-76
2023/04/17 00:31:03;;;;;;;96.50;44.00;;;6.50;79.90;;;;;;5055789;28;20045;-74
2023/04/17 00:33:32;;;;;;;99.00;44.03;;;6.50;80.00;;;;;;5059496;28;20064;-76
2023/04/17 00:35:58;;;;;;;83.63;41.80;;;6.50;80.10;;;;;;5051584;28;20044;-75
2023/04/17 00:38:24;;;;;;;90.73;43.00;;;6.50;80.10;;;;;;5035668;28;20132;-77
2023/04/17 00:40:50;;;;;;;76.93;41.27;;;6.50;80.00;;;;;;5069771;28;20048;-74
2023/04/17 00:43:16;;;;;;;75.20;38.93;;;6.50;80.00;;;;;;5051589;28;20049;-75
2023/04/17 00:45:42;;;;;;;75.27;39.77;;;6.50;80.00;;;;;;5052260;28;20436;-76
2023/04/17 00:48:09;;;;;;;79.87;41.17;;;6.50;79.80;;;;;;5014079;28;20090;-74
2023/04/17 00:50:35;;;;;;;77.90;41.47;;;6.50;79.80;;;;;;5051249;28;20041;-75
2023/04/17 00:53:01;;;;;;;79.97;40.77;;;6.40;79.90;;;;;;5068488;28;20473;-76
2023/04/17 00:55:29;;;;;;;77.37;39.93;;;6.40;79.90;;;;;;5056899;28;20103;-75
2023/04/17 00:57:55;;;;;;;96.67;43.93;;;6.40;80.00;;;;;;5023007;28;20120;-76
2023/04/17 01:00:21;;;;;;;94.27;45.63;;;6.40;80.00;;;;;;5048809;28;20047;-76
2023/04/17 01:02:47;;;;;;;95.93;44.60;;;6.40;80.00;;;;;;5033590;28;20462;-76
2023/04/17 01:05:13;;;;;;;95.07;43.97;;;6.40;80.10;;;;;;5035353;28;20044;-76
2023/04/17 01:07:40;;;;;;;90.73;43.17;;;6.40;80.10;;;;;;5035197;28;20127;-76
2023/04/17 01:10:06;;;;;;;96.67;42.20;;;6.40;80.10;;;;;;5051821;28;20087;-76
2023/04/17 01:12:32;;;;;;;134.37;44.03;;;6.50;80.20;;;;;;5059442;28;20048;-75
2023/04/17 01:14:58;;;;;;;145.70;45.70;;;6.40;80.20;;;;;;5068928;28;20102;-76
2023/04/17 01:17:27;;;;;;;93.60;44.27;;;6.40;80.20;;;;;;5059465;28;20044;-76
2023/04/17 01:19:53;;;;;;;114.90;44.37;;;6.40;80.10;;;;;;5049908;28;20072;-76
2023/04/17 01:22:19;;;;;;;118.93;47.53;;;6.40;80.20;;;;;;5048997;28;20081;-76
2023/04/17 01:24:46;;;;;;;107.73;47.23;;;6.40;80.10;;;;;;5047874;28;20467;-75
2023/04/17 01:27:15;;;;;;;124.37;46.63;;;6.40;80.20;;;;;;5032567;28;20045;-76
2023/04/17 01:29:41;;;;;;;105.53;47.93;;;6.40;80.20;;;;;;5047899;28;20110;-76
2023/04/17 01:32:07;;;;;;;228.03;50.30;;;6.40;80.10;;;;;;5050964;28;20048;-76
2023/04/17 01:34:34;;;;;;;148.90;49.80;;;6.40;80.30;;;;;;5044242;28;20049;-76
2023/04/17 01:36:59;;;;;;;245.53;51.77;;;6.30;80.20;;;;;;5034128;28;20051;-76
2023/04/17 01:39:26;;;;;;;236.60;48.93;;;6.30;80.20;;;;;;5049627;28;20123;-76
2023/04/17 01:41:53;;;;;;;297.30;51.60;;;6.30;80.20;;;;;;5061413;28;20056;-75
2023/04/17 01:44:19;;;;;;;228.37;48.43;;;6.30;80.20;;;;;;5050205;28;20124;-76
2023/04/17 01:46:45;;;;;;;192.33;44.97;;;6.30;80.30;;;;;;5035994;28;20133;-75
2023/04/17 01:49:12;;;;;;;259.70;46.27;;;6.30;80.30;;;;;;5044656;28;20040;-76
2023/04/17 01:51:37;;;;;;;163.60;43.93;;;6.30;80.30;;;;;;5050233;28;20061;-74
2023/04/17 01:54:03;;;;;;;203.80;45.20;;;6.30;80.20;;;;;;5068196;28;20060;-76
2023/04/17 01:56:29;;;;;;;206.17;43.43;;;6.30;80.30;;;;;;5042997;28;20059;-72
2023/04/17 01:58:55;;;;;;;269.40;46.53;;;6.30;80.40;;;;;;5066430;28;20129;-76
2023/04/17 02:01:21;;;;;;;192.57;43.73;;;6.30;80.40;;;;;;5068976;28;20509;-76
2023/04/17 02:03:46;;;;;;;271.93;44.83;;;6.20;80.30;;;;;;5050341;28;20048;-75
2023/04/17 02:06:12;;;;;;;195.87;42.90;;;6.20;80.50;;;;;;5059516;28;20040;-76
2023/04/17 02:08:38;;;;;;;196.23;41.67;;;6.20;80.40;;;;;;5026303;28;20088;-76
2023/04/17 02:11:03;;;;;;;224.50;45.83;;;6.20;80.40;;;;;;5049231;28;20045;-75
2023/04/17 02:13:29;;;;;;;278.37;48.73;;;6.20;80.40;;;;;;5057390;28;20056;-75
2023/04/17 02:15:55;;;;;;;195.57;47.03;;;6.20;80.40;;;;;;5068843;28;20055;-76
2023/04/17 02:18:21;;;;;;;179.27;44.50;;;6.20;80.50;;;;;;5062077;28;20048;-76
2023/04/17 02:20:47;;;;;;;203.63;47.20;;;6.20;80.40;;;;;;5031759;28;20417;-76
2023/04/17 02:23:13;;;;;;;152.10;44.03;;;6.10;80.50;;;;;;5048223;28;20045;-75
2023/04/17 02:25:38;;;;;;;160.23;45.37;;;6.10;80.50;;;;;;5048505;28;20044;-76
2023/04/17 02:28:05;;;;;;;178.77;45.00;;;6.10;80.50;;;;;;5037523;28;20052;-76
2023/04/17 02:30:31;;;;;;;221.13;44.33;;;6.10;80.50;;;;;;5052858;28;20044;-76
2023/04/17 02:32:57;;;;;;;195.43;47.27;;;6.20;80.50;;;;;;5067987;28;20055;-76
2023/04/17 02:35:25;;;;;;;192.27;47.60;;;6.10;80.50;;;;;;5058051;28;20040;-76
2023/04/17 02:37:51;;;;;;;166.67;44.90;;;6.10;80.50;;;;;;5032251;28;20531;-76
2023/04/17 02:40:17;;;;;;;124.57;43.73;;;6.10;80.50;;;;;;5050415;28;20059;-76
2023/04/17 02:42:43;;;;;;;139.13;42.07;;;6.10;80.50;;;;;;5051304;28;20048;-76
2023/04/17 02:45:09;;;;;;;123.40;39.07;;;6.10;80.50;;;;;;5050421;28;20107;-77
2023/04/17 02:47:35;;;;;;;113.73;41.17;;;6.20;80.60;;;;;;5037397;28;20494;-77
2023/04/17 02:50:02;;;;;;;177.17;45.80;;;6.10;80.50;;;;;;5072018;28;20044;-76
2023/04/17 02:52:32;;;;;;;158.17;47.67;;;6.20;80.60;;;;;;5071395;28;20452;-76
2023/04/17 02:54:57;;;;;;;150.13;48.03;;;6.20;80.50;;;;;;5054126;28;20419;-77
2023/04/17 02:57:24;;;;;;;162.67;52.60;;;6.20;80.70;;;;;;5045509;28;20051;-76
2023/04/17 02:59:50;;;;;;;174.07;55.90;;;6.20;80.70;;;;;;5072164;28;20400;-76
2023/04/17 03:02:20;;;;;;;168.33;55.33;;;6.20;80.70;;;;;;5071316;28;20136;-76
2023/04/17 03:04:48;;;;;;;167.80;53.87;;;6.20;80.60;;;;;;5053835;28;20056;-76
2023/04/17 03:07:18;;;;;;;190.40;56.40;;;6.20;80.60;;;;;;5017442;28;20049;-77
2023/04/17 03:09:47;;;;;;;243.13;58.93;;;6.20;80.60;;;;;;5036983;28;20084;-76
2023/04/17 03:12:14;;;;;;;269.80;56.87;;;6.20;80.60;;;;;;5071245;28;20514;-76
2023/04/17 03:14:41;;;;;;;333.67;58.80;;;6.20;80.70;;;;;;5071663;28;20156;-73
2023/04/17 03:17:07;;;;;;;330.33;56.83;;;6.20;80.70;;;;;;5060817;28;20114;-75
2023/04/17 03:19:33;;;;;;;322.27;55.47;;;6.20;80.70;;;;;;5055971;28;20049;-76
2023/04/17 03:22:00;;;;;;;246.70;51.57;;;6.20;80.70;;;;;;5050308;28;20049;-75
2023/04/17 03:24:26;;;;;;;316.33;52.47;;;6.20;80.60;;;;;;5033137;28;20063;-76
2023/04/17 03:26:51;;;;;;;389.80;53.57;;;6.10;80.60;;;;;;5034961;28;20051;-77
2023/04/17 03:29:17;;;;;;;325.13;52.27;;;6.10;80.60;;;;;;5050706;28;20091;-76
2023/04/17 03:31:43;;;;;;;281.63;50.07;;;6.10;80.60;;;;;;5051926;28;20037;-75
2023/04/17 03:34:09;;;;;;;235.87;48.87;;;6.10;80.60;;;;;;5066073;28;20047;-76
2023/04/17 03:36:35;;;;;;;363.80;50.83;;;6.10;80.60;;;;;;5039735;28;20059;-76
2023/04/17 03:39:00;;;;;;;423.43;57.83;;;6.10;80.60;;;;;;5034969;28;20117;-76
2023/04/17 03:41:26;;;;;;;412.77;54.67;;;6.00;80.50;;;;;;5053081;28;20483;-77
2023/04/17 03:43:52;;;;;;;242.77;51.37;;;6.00;80.60;;;;;;5070319;28;20048;-76
2023/04/17 03:46:18;;;;;;;375.13;53.83;;;6.00;80.60;;;;;;5042655;28;20097;-76
2023/04/17 03:48:43;;;;;;;393.07;53.80;;;6.00;80.60;;;;;;5064629;28;20520;-77
2023/04/17 03:51:09;;;;;;;506.17;60.83;;;6.00;80.70;;;;;;5027533;28;20044;-76
2023/04/17 03:53:35;;;;;;;381.30;56.20;;;5.90;80.60;;;;;;5050948;28;20393;-76
2023/04/17 03:56:01;;;;;;;293.70;51.80;;;5.90;80.70;;;;;;5051332;28;20044;-77
2023/04/17 03:58:26;;;;;;;361.93;56.13;;;5.90;80.70;;;;;;5035969;28;20044;-77
2023/04/17 04:00:54;;;;;;;369.90;58.87;;;5.90;80.70;;;;;;5070583;28;20040;-76
2023/04/17 04:03:23;;;;;;;494.63;65.83;;;5.90;80.80;;;;;;5051746;28;20048;-77
2023/04/17 04:05:49;;;;;;;381.37;61.60;;;5.90;80.80;;;;;;5035966;28;20052;-77
2023/04/17 04:08:15;;;;;;;449.07;64.87;;;6.00;80.70;;;;;;5047023;28;20060;-76
2023/04/17 04:10:43;;;;;;;412.50;64.23;;;6.00;80.70;;;;;;5051030;28;20045;-77
2023/04/17 04:13:10;;;;;;;574.33;75.43;;;6.00;80.80;;;;;;5053099;28;20048;-76
2023/04/17 04:15:36;;;;;;;345.83;63.07;;;6.00;80.80;;;;;;5052944;28;20059;-75
2023/04/17 04:18:01;;;;;;;268.27;62.00;;;6.00;80.80;;;;;;5055030;28;20044;-76
2023/04/17 04:20:28;;;;;;;259.13;62.27;;;6.00;80.80;;;;;;5070565;28;20105;-76
2023/04/17 04:22:56;;;;;;;481.67;75.17;;;6.00;80.90;;;;;;5051732;28;20048;-76
2023/04/17 04:25:25;;;;;;;307.03;67.07;;;6.00;80.80;;;;;;5052342;28;20044;-76
2023/04/17 04:27:51;;;;;;;368.43;68.77;;;6.00;80.80;;;;;;5035869;28;20045;-76
2023/04/17 04:30:18;;;;;;;381.07;70.10;;;6.00;80.80;;;;;;5052151;28;20063;-76
2023/04/17 04:32:44;;;;;;;252.40;66.43;;;6.10;80.90;;;;;;5069017;28;20041;-75
2023/04/17 04:35:14;;;;;;;249.10;64.60;;;6.10;80.90;;;;;;5054702;28;20041;-77
2023/04/17 04:37:41;;;;;;;324.90;69.37;;;6.10;80.80;;;;;;5048157;28;20128;-75
2023/04/17 04:40:11;;;;;;;377.03;72.47;;;6.10;80.90;;;;;;5050509;28;20119;-74
2023/04/17 04:42:38;;;;;;;290.67;69.27;;;6.10;80.80;;;;;;5068139;28;20048;-76
2023/04/17 04:45:05;;;;;;;286.83;70.43;;;6.10;80.90;;;;;;5052205;28;20052;-76
2023/04/17 04:47:31;;;;;;;276.03;69.27;;;6.10;80.80;;;;;;5052932;28;20041;-76
2023/04/17 04:49:57;;;;;;;287.77;72.57;;;6.10;80.90;;;;;;5065039;28;20452;-77
2023/04/17 04:52:23;;;;;;;289.53;72.23;;;6.10;80.80;;;;;;5045117;28;20041;-76
2023/04/17 04:54:49;;;;;;;282.53;68.47;;;6.10;81.00;;;;;;5065694;28;20047;-75
2023/04/17 04:57:15;;;;;;;231.20;64.27;;;6.10;80.90;;;;;;5036747;28;20079;-76
2023/04/17 04:59:40;;;;;;;287.03;63.53;;;6.10;80.90;;;;;;5069075;28;20094;-75
2023/04/17 05:02:06;;;;;;;260.10;66.43;;;6.10;80.90;;;;;;5067730;28;20084;-76
2023/04/17 05:04:32;;;;;;;185.77;62.27;;;6.10;80.90;;;;;;5034523;28;20044;-76
2023/04/17 05:06:58;;;;;;;181.57;64.43;;;6.10;80.90;;;;;;5054466;28;20131;-75
2023/04/17 05:09:23;;;;;;;202.17;62.03;;;6.10;80.90;;;;;;5039685;28;20052;-76
2023/04/17 05:11:52;;;;;;;272.57;67.90;;;6.10;81.00;;;;;;5049891;28;20052;-76
2023/04/17 05:14:18;;;;;;;202.70;64.47;;;6.10;81.00;;;;;;5047649;28;20049;-76
2023/04/17 05:16:44;;;;;;;187.67;62.23;;;6.20;81.00;;;;;;5041103;28;20044;-76
2023/04/17 05:19:10;;;;;;;213.73;64.93;;;6.20;81.00;;;;;;5041823;28;20049;-76
2023/04/17 05:21:36;;;;;;;230.43;64.27;;;6.20;81.00;;;;;;5049637;28;20044;-77
2023/04/17 05:24:02;;;;;;;190.43;64.50;;;6.20;81.00;;;;;;5046474;28;20495;-77
2023/04/17 05:26:27;;;;;;;197.77;60.80;;;6.30;81.00;;;;;;5040859;28;20044;-75
2023/04/17 05:28:53;;;;;;;168.40;56.63;;;6.30;81.10;;;;;;5044513;28;20076;-75
2023/04/17 05:31:20;;;;;;;139.23;51.77;;;6.30;81.10;;;;;;5059697;28;20556;-75
2023/04/17 05:33:46;;;;;;;143.63;50.80;;;6.30;81.10;;;;;;5045025;28;20044;-76
2023/04/17 05:36:12;;;;;;;131.73;47.27;;;6.40;81.10;;;;;;5059256;28;20369;-73
2023/04/17 05:38:38;;;;;;;113.67;46.60;;;6.40;81.10;;;;;;5041736;28;20048;-77
2023/04/17 05:41:06;;;;;;;118.10;46.43;;;6.40;81.10;;;;;;5048674;28;20106;-74
2023/04/17 05:43:32;;;;;;;116.67;47.37;;;6.40;81.10;;;;;;5042818;28;20484;-76
2023/04/17 05:45:58;;;;;;;123.97;48.03;;;6.40;81.10;;;;;;5040766;28;20052;-76
2023/04/17 05:48:23;;;;;;;118.90;49.23;;;6.50;81.10;;;;;;5051712;28;20664;-76
2023/04/17 05:50:49;;;;;;;117.23;46.67;;;6.50;81.20;;;;;;5068781;28;20045;-76
2023/04/17 05:53:15;;;;;;;117.73;47.53;;;6.50;81.20;;;;;;5068221;28;20041;-75
2023/04/17 05:55:41;;;;;;;116.37;46.87;;;6.60;81.20;;;;;;5059573;28;20657;-76
2023/04/17 05:58:06;;;;;;;113.33;46.53;;;6.60;81.20;;;;;;5048421;28;20062;-76
2023/04/17 06:00:33;;;;;;;104.53;45.67;;;6.60;81.10;;;;;;5059225;28;20495;-77
2023/04/17 06:03:00;;;;;;;100.53;45.80;;;6.70;81.10;;;;;;5050151;28;20047;-76
2023/04/17 06:05:26;;;;;;;101.73;45.93;;;6.70;81.20;;;;;;5068992;28;20482;-76
2023/04/17 06:07:52;;;;;;;98.93;46.03;;;6.80;81.10;;;;;;5037906;28;20048;-75
2023/04/17 06:10:19;;;;;;;99.80;45.90;;;6.80;81.20;;;;;;5068111;28;20051;-77
2023/04/17 06:12:44;;;;;;;89.57;43.70;;;6.90;81.20;;;;;;5050073;28;20047;-75
2023/04/17 06:15:11;;;;;;;89.33;43.10;;;7.00;81.20;;;;;;5054414;28;20120;-76
2023/04/17 06:17:38;;;;;;;89.70;43.83;;;7.00;81.20;;;;;;5044758;28;20048;-76
2023/04/17 06:20:09;;;;;;;82.97;42.67;;;7.00;81.20;;;;;;5039671;28;20049;-76
2023/04/17 06:22:39;;;;;;;84.03;43.28;;;7.10;81.20;;;;;;5051281;28;20083;-77
2023/04/17 06:25:06;;;;;;;82.13;43.93;;;7.20;81.20;;;;;;5072769;28;20106;-76
2023/04/17 06:27:32;;;;;;;79.80;42.43;;;7.20;81.20;;;;;;5032337;28;20058;-76
2023/04/17 06:29:58;;;;;;;78.40;43.20;;;7.30;81.10;;;;;;5054090;28;20123;-75
2023/04/17 06:32:23;;;;;;;69.57;40.87;;;7.40;81.10;;;;;;5069240;28;20052;-75
2023/04/17 06:34:49;;;;;;;70.47;39.87;;;7.40;81.10;;;;;;5072362;28;20048;-76
2023/04/17 06:37:15;;;;;;;66.77;40.83;;;7.50;81.10;;;;;;5057299;28;20049;-76
2023/04/17 06:39:41;;;;;;;63.10;36.57;;;7.50;81.00;;;;;;5054683;28;20048;-75
2023/04/17 06:42:06;;;;;;;62.03;38.00;;;7.50;81.00;;;;;;5044568;28;20449;-76
2023/04/17 06:44:32;;;;;;;59.80;37.30;;;7.60;81.00;;;;;;5029496;28;20049;-77
2023/04/17 06:47:02;;;;;;;61.50;37.90;;;7.60;81.00;;;;;;5046748;28;20041;-76
2023/04/17 06:49:30;;;;;;;61.60;39.57;;;7.60;80.90;;;;;;5046832;28;20055;-76
2023/04/17 06:51:57;;;;;;;63.40;40.23;;;7.70;80.80;;;;;;5047296;28;20094;-76
2023/04/17 06:54:23;;;;;;;69.70;43.10;;;7.80;80.90;;;;;;5065154;28;20048;-76
2023/04/17 06:56:50;;;;;;;65.07;44.33;;;7.80;80.90;;;;;;5051357;28;20041;-77
2023/04/17 06:59:16;;;;;;;63.63;44.17;;;7.80;80.80;;;;;;5045036;28;20102;-77
2023/04/17 07:01:42;;;;;;;60.60;42.63;;;7.90;80.70;;;;;;5070259;28;20119;-77
2023/04/17 07:04:09;;;;;;;60.70;42.03;;;8.00;80.80;;;;;;5068436;28;20626;-76
2023/04/17 07:06:35;;;;;;;61.43;42.27;;;8.00;80.60;;;;;;5054526;28;20512;-74
2023/04/17 07:09:01;;;;;;;59.27;41.87;;;8.10;80.60;;;;;;5058301;28;20259;-75
2023/04/17 07:11:27;;;;;;;59.63;40.73;;;8.10;80.70;;;;;;5046145;28;20558;-76
2023/04/17 07:13:53;;;;;;;53.70;40.37;;;8.10;80.60;;;;;;5066556;28;20036;-76
2023/04/17 07:16:21;;;;;;;59.43;41.87;;;8.20;80.60;;;;;;5042809;28;20491;-76
2023/04/17 07:18:50;;;;;;;57.17;40.10;;;8.30;80.50;;;;;;5059390;28;20495;-76
2023/04/17 07:21:16;;;;;;;61.57;41.27;;;8.30;80.50;;;;;;5063212;28;20045;-76
2023/04/17 07:23:41;;;;;;;53.87;38.07;;;8.30;80.40;;;;;;5055752;28;20037;-76
2023/04/17 07:26:07;;;;;;;52.73;38.30;;;8.40;80.40;;;;;;5054146;28;20040;-73
2023/04/17 07:28:33;;;;;;;53.03;37.43;;;8.40;80.30;;;;;;5053275;28;20491;-75
2023/04/17 07:30:59;;;;;;;48.83;37.37;;;8.40;80.40;;;;;;5023197;28;20056;-75
2023/04/17 07:33:25;;;;;;;51.53;36.43;;;8.50;80.40;;;;;;5046748;28;20048;-77
2023/04/17 07:35:52;;;;;;;48.57;35.43;;;8.50;80.20;;;;;;5048703;28;20114;-74
2023/04/17 07:38:17;;;;;;;47.03;34.60;;;8.60;80.20;;;;;;5031374;28;20522;-73
2023/04/17 07:40:43;;;;;;;45.07;33.40;;;8.70;80.30;;;;;;5027921;28;20045;-75
2023/04/17 07:43:09;;;;;;;47.87;35.47;;;8.80;80.20;;;;;;5045996;28;20095;-75
2023/04/17 07:45:35;;;;;;;47.10;34.83;;;8.90;80.20;;;;;;5043645;28;20434;-75
2023/04/17 07:48:03;;;;;;;44.87;32.50;;;9.00;80.10;;;;;;5018304;28;20052;-76
2023/04/17 07:50:29;;;;;;;43.47;31.93;;;9.10;80.00;;;;;;5028354;28;20044;-76
2023/04/17 07:52:55;;;;;;;49.13;31.70;;;9.20;79.80;;;;;;5044750;28;21512;-74
2023/04/17 07:55:20;;;;;;;41.17;30.83;;;9.20;79.80;;;;;;5029383;28;20051;-75
2023/04/17 07:57:50;;;;;;;41.63;30.47;;;9.20;79.70;;;;;;5030396;28;20258;-74
2023/04/17 08:00:16;;;;;;;38.77;30.90;;;9.20;79.60;;;;;;5016468;28;20041;-75
2023/04/17 08:02:42;;;;;;;41.07;31.00;;;9.20;79.50;;;;;;5028304;28;20052;-75
2023/04/17 08:05:08;;;;;;;37.63;26.63;;;9.40;79.60;;;;;;5030723;28;20060;-73
2023/04/17 08:07:35;;;;;;;35.97;28.33;;;9.50;79.40;;;;;;5031001;28;20140;-77
2023/04/17 08:10:01;;;;;;;33.83;26.17;;;9.60;79.40;;;;;;5046132;28;20159;-77
2023/04/17 08:12:27;;;;;;;33.50;26.90;;;9.70;79.20;;;;;;5048237;28;20048;-75
2023/04/17 08:14:53;;;;;;;36.43;26.53;;;9.80;79.20;;;;;;5047965;28;20683;-77
2023/04/17 08:17:21;;;;;;;31.93;26.40;;;9.90;79.00;;;;;;5031659;28;20056;-74
2023/04/17 08:19:49;;;;;;;31.90;26.80;;;10.00;78.90;;;;;;5044405;28;20151;-76
2023/04/17 08:22:15;;;;;;;32.43;27.47;;;10.10;78.80;;;;;;5025746;28;20059;-77
2023/04/17 08:24:41;;;;;;;31.00;26.17;;;10.10;78.70;;;;;;5048171;28;20060;-77
2023/04/17 08:27:07;;;;;;;31.13;26.90;;;10.30;78.70;;;;;;5030367;28;20127;-74
2023/04/17 08:29:33;;;;;;;30.03;26.13;;;10.50;78.70;;;;;;5026044;28;20056;-78
2023/04/17 08:31:58;;;;;;;32.80;25.50;;;10.80;78.60;;;;;;5030168;28;20422;-75
2023/04/17 08:34:24;;;;;;;31.13;25.53;;;11.00;78.40;;;;;;5031957;28;20048;-79
2023/04/17 08:36:50;;;;;;;27.57;23.27;;;11.30;78.30;;;;;;5029938;28;20067;-74
2023/04/17 08:39:16;;;;;;;25.67;22.53;;;11.60;77.50;;;;;;5044871;28;20047;-74
2023/04/17 08:41:50;;;;;;;25.17;21.80;;;11.70;77.50;;;;;;5047711;28;20047;-77
2023/04/17 08:44:20;;;;;;;28.48;21.40;;;11.90;77.10;;;;;;5025967;28;20048;-74
2023/04/17 08:46:46;;;;;;;25.17;21.90;;;12.00;77.20;;;;;;5013583;28;20060;-74
2023/04/17 08:49:12;;;;;;;27.55;22.20;;;12.10;77.00;;;;;;5042187;28;20507;-75
2023/04/17 08:51:37;;;;;;;28.85;22.55;;;12.30;76.70;;;;;;5041473;28;20139;-74
2023/04/17 08:54:03;;;;;;;23.77;20.38;;;12.40;76.20;;;;;;5043901;28;20052;-78
2023/04/17 08:56:29;;;;;;;26.35;22.70;;;12.50;76.00;;;;;;5035196;28;20480;-78
2023/04/17 08:58:55;;;;;;;29.00;22.42;;;12.50;75.50;;;;;;5025480;28;20052;-74
2023/04/17 09:01:21;;;;;;;24.10;21.05;;;12.50;75.70;;;;;;5045810;28;20059;-76
2023/04/17 09:03:50;;;;;;;24.98;21.20;;;12.50;75.20;;;;;;5046002;28;20044;-76
2023/04/17 09:06:16;;;;;;;25.83;20.17;;;12.50;75.30;;;;;;5015070;28;20040;-74
2023/04/17 09:08:55;;;;;;;23.45;19.85;;;12.50;75.10;;;;;;5007219;28;20064;-74
2023/04/17 09:11:21;;;;;;;23.27;19.05;;;12.70;74.50;;;;;;5043280;28;20060;-76
2023/04/17 09:13:47;;;;;;;24.13;19.85;;;12.70;74.70;;;;;;5021386;28;20060;-75
2023/04/17 09:16:14;;;;;;;23.85;20.65;;;12.50;74.30;;;;;;5036618;28;20053;-75
2023/04/17 09:18:45;;;;;;;23.58;19.63;;;12.30;74.00;;;;;;5041584;28;20179;-74
2023/04/17 09:21:12;;;;;;;25.40;20.42;;;12.10;74.30;;;;;;5045834;28;20487;-78
2023/04/17 09:23:52;;;;;;;26.30;20.65;;;12.00;74.50;;;;;;5039268;28;20094;-78
2023/04/17 09:26:20;;;;;;;23.92;19.83;;;12.00;74.30;;;;;;5043408;28;20096;-76
2023/04/17 09:29:03;;;;;;;23.23;19.38;;;12.00;74.70;;;;;;5036402;28;20063;-74
2023/04/17 09:31:30;;;;;;;25.25;19.52;;;12.00;74.50;;;;;;5042139;28;20049;-76
2023/04/17 09:34:01;;;;;;;24.67;19.75;;;12.00;74.70;;;;;;5042197;28;20131;-77
2023/04/17 09:36:31;;;;;;;24.25;20.58;;;12.00;74.60;;;;;;5010464;28;20525;-74
2023/04/17 09:38:59;;;;;;;24.73;19.77;;;12.00;74.70;;;;;;5010348;28;20073;-78
2023/04/17 09:41:26;;;;;;;22.67;19.17;;;12.10;74.70;;;;;;5025663;28;20049;-74
2023/04/17 09:44:00;;;;;;;24.05;19.42;;;12.10;74.50;;;;;;5041601;28;20151;-76
2023/04/17 09:46:44;;;;;;;23.95;19.75;;;12.20;74.40;;;;;;5018100;28;20618;-74
2023/04/17 09:49:21;;;;;;;24.30;18.38;;;12.30;74.10;;;;;;5046796;28;20361;-77
2023/04/17 09:51:48;;;;;;;21.05;18.38;;;12.50;74.30;;;;;;5054454;28;20499;-75
2023/04/17 09:54:15;;;;;;;22.88;18.55;;;12.50;74.20;;;;;;5050780;28;20107;-76
2023/04/17 09:56:42;;;;;;;23.60;18.73;;;12.50;73.70;;;;;;5041299;28;20383;-77
2023/04/17 09:59:08;;;;;;;24.08;19.08;;;12.50;74.00;;;;;;5043836;28;20052;-74
2023/04/17 10:01:36;;;;;;;24.05;17.75;;;12.70;74.00;;;;;;5054459;28;20485;-76
2023/04/17 10:04:03;;;;;;;20.95;17.73;;;12.80;73.90;;;;;;5054009;28;20127;-76
2023/04/17 10:06:33;;;;;;;22.98;18.73;;;12.90;73.70;;;;;;4995305;28;20178;-73
2023/04/17 10:09:00;;;;;;;22.77;18.23;;;12.90;73.50;;;;;;5033103;28;20060;-76
2023/04/17 10:11:37;;;;;;;24.10;18.27;;;12.90;73.40;;;;;;5052637;28;20487;-78
2023/04/17 10:14:03;;;;;;;21.25;17.17;;;13.10;73.30;;;;;;5040929;28;20060;-77
2023/04/17 10:16:34;;;;;;;22.40;18.60;;;13.30;73.80;;;;;;5024437;28;20060;-78
2023/04/17 10:19:26;;;;;;;21.38;17.98;;;13.40;73.30;;;;;;5051528;28;20125;-76
2023/04/17 10:22:19;;;;;;;20.13;17.92;;;13.70;72.80;;;;;;5037656;28;20060;-77
2023/04/17 10:25:11;;;;;;;22.65;17.17;;;13.90;72.50;;;;;;5053062;28;20056;-74
2023/04/17 10:27:37;;;;;;;23.63;17.58;;;14.00;71.80;;;;;;5018438;28;20057;-74
2023/04/17 10:30:14;;;;;;;23.48;17.77;;;13.70;71.90;;;;;;5053323;28;21248;-76
2023/04/17 10:33:06;;;;;;;22.48;17.70;;;13.40;71.90;;;;;;5034901;28;20656;-76
2023/04/17 10:35:35;;;;;;;23.23;18.35;;;13.30;72.10;;;;;;5019849;28;20047;-77
2023/04/17 10:38:03;;;;;;;23.70;18.55;;;13.40;72.40;;;;;;5040233;28;20048;-75
2023/04/17 10:40:30;;;;;;;21.33;17.23;;;13.70;72.60;;;;;;5056536;28;21277;-73
2023/04/17 10:43:05;;;;;;;23.48;18.58;;;14.00;72.00;;;;;;5052562;28;20045;-76
2023/04/17 10:45:53;;;;;;;21.60;18.15;;;14.30;71.40;;;;;;5050689;28;20960;-74
2023/04/17 10:48:33;;;;;;;24.85;18.38;;;14.40;70.30;;;;;;5034420;28;21303;-77
2023/04/17 10:51:01;;;;;;;20.37;17.37;;;14.00;70.50;;;;;;5049596;28;20109;-77
2023/04/17 10:53:43;;;;;;;24.92;18.27;;;13.70;71.10;;;;;;5049063;28;20371;-75
2023/04/17 10:56:11;;;;;;;25.00;18.77;;;13.30;70.70;;;;;;5026548;28;20056;-76
2023/04/17 10:58:57;;;;;;;21.83;18.77;;;13.10;71.60;;;;;;5044867;28;20300;-76
2023/04/17 11:01:35;;;;;;;27.83;19.83;;;13.00;72.00;;;;;;5049023;28;20048;-75
2023/04/17 11:04:03;;;;;;;25.55;19.63;;;13.10;72.10;;;;;;5048630;28;20041;-76
2023/04/17 11:06:31;;;;;;;24.05;19.25;;;13.30;72.20;;;;;;5019466;28;20489;-73
2023/04/17 11:08:58;;;;;;;25.70;19.17;;;13.50;71.50;;;;;;5026308;28;20503;-75
2023/04/17 11:11:24;;;;;;;25.70;18.60;;;13.30;71.20;;;;;;5030294;28;20080;-75
2023/04/17 11:13:50;;;;;;;25.83;19.75;;;13.50;71.50;;;;;;5048199;28;20045;-74
2023/04/17 11:16:16;;;;;;;26.73;19.38;;;13.60;71.30;;;;;;5037347;28;20045;-74
2023/04/17 11:18:43;;;;;;;25.27;19.63;;;13.80;71.00;;;;;;5043957;28;20036;-75
2023/04/17 11:21:12;;;;;;;24.45;18.35;;;13.90;71.30;;;;;;5049238;28;20056;-74
2023/04/17 11:23:39;;;;;;;24.50;19.88;;;14.10;71.00;;;;;;5027249;28;20044;-76
2023/04/17 11:26:08;;;;;;;26.05;19.45;;;14.30;71.00;;;;;;5025596;28;20052;-73
2023/04/17 11:28:35;;;;;;;26.67;19.55;;;14.30;70.70;;;;;;5040874;28;20079;-77
2023/04/17 11:31:02;;;;;;;23.75;18.83;;;14.30;70.70;;;;;;5047146;28;20056;-75
2023/04/17 11:33:35;;;;;;;23.92;19.52;;;14.30;70.70;;;;;;5048525;28;20139;-76
2023/04/17 11:36:01;;;;;;;22.90;18.95;;;14.30;70.60;;;;;;5032396;28;20517;-76
2023/04/17 11:38:27;;;;;;;24.05;19.67;;;14.50;71.10;;;;;;5015768;28;20424;-78
2023/04/17 11:40:56;;;;;;;24.63;18.67;;;14.60;70.90;;;;;;5051038;28;20159;-75
2023/04/17 11:43:22;;;;;;;24.15;19.30;;;14.60;70.90;;;;;;5028642;28;20052;-77
2023/04/17 11:45:56;;;;;;;25.33;19.30;;;14.60;70.90;;;;;;5013507;28;20515;-75
2023/04/17 11:48:23;;;;;;;27.08;19.95;;;14.70;70.10;;;;;;5015724;28;20272;-74
2023/04/17 11:50:57;;;;;;;25.92;19.58;;;14.70;70.50;;;;;;5030399;28;20052;-78
2023/04/17 11:53:23;;;;;;;26.90;19.92;;;14.80;70.30;;;;;;5047163;28;20049;-76
2023/04/17 11:56:09;;;;;;;26.08;20.58;;;14.80;70.30;;;;;;5031041;28;20045;-75
2023/04/17 11:58:44;;;;;;;22.98;19.92;;;14.90;70.10;;;;;;5037715;28;20399;-76
2023/04/17 12:01:11;;;;;;;26.92;19.77;;;14.90;69.60;;;;;;5049656;28;20161;-76
2023/04/17 12:03:39;;;;;;;24.80;19.13;;;15.00;69.90;;;;;;5049047;28;20109;-75
2023/04/17 12:06:05;;;;;;;25.13;20.48;;;15.00;69.50;;;;;;5028849;28;20134;-73
2023/04/17 12:08:45;;;;;;;23.65;19.83;;;15.00;69.40;;;;;;5037189;28;20495;-75
2023/04/17 12:11:16;;;;;;;24.27;20.00;;;14.90;69.30;;;;;;5032889;28;20633;-74
2023/04/17 12:13:42;;;;;;;28.13;21.17;;;14.70;69.70;;;;;;5030698;28;20048;-78
2023/04/17 12:16:08;;;;;;;27.05;21.60;;;14.90;69.70;;;;;;5023698;28;20518;-75
2023/04/17 12:18:33;;;;;;;27.25;20.55;;;14.90;69.90;;;;;;5019717;28;20476;-75
2023/04/17 12:20:59;;;;;;;25.67;20.80;;;14.90;69.60;;;;;;5043323;28;20543;-77
2023/04/17 12:23:25;;;;;;;25.58;20.80;;;15.20;69.70;;;;;;5028218;28;20538;-77
2023/04/17 12:25:50;;;;;;;27.20;22.08;;;15.20;69.00;;;;;;5049191;28;20099;-78
2023/04/17 12:28:16;;;;;;;27.85;21.33;;;15.30;69.00;;;;;;5029926;28;20136;-76
2023/04/17 12:30:42;;;;;;;26.35;21.35;;;15.40;68.80;;;;;;5049535;28;20076;-76
2023/04/17 12:33:08;;;;;;;24.85;21.80;;;15.20;68.80;;;;;;5027070;28;20411;-78